Time;durP1;ratioP1;P1;durP2;ratioP2;P2;SDS_P1;SDS_P2;PMS_P1;PMS_P2;Temp;Humidity;BMP_temperature;BMP_pressure;BME280_temperature;BME280_humidity;BME280_pressure;Samples;Min_cycle;Max_cycle;Signal;HPM_P1;HPM_P2
2023/09/23 00:02:47;;;;;;;0.10;0.10;;;;;;;12.51;100.00;98433.09;5116275;28;20186;-58
2023/09/23 00:05:35;;;;;;;0.10;0.10;;;;;;;12.49;100.00;98432.38;5115756;28;20210;-57
2023/09/23 00:08:23;;;;;;;0.10;0.10;;;;;;;12.49;0.00;98432.38;5116070;28;20189;-57
2023/09/23 00:11:10;;;;;;;0.10;0.10;;;;;;;12.61;100.00;98436.66;5114638;28;20212;-57
2023/09/23 00:13:57;;;;;;;0.10;0.10;;;;;;;-144.17;100.00;74824.88;5116094;28;20193;-58
2023/09/23 00:16:46;;;;;;;0.10;0.10;;;;;;;12.63;100.00;98437.38;5115926;28;20196;-58
2023/09/23 00:19:35;;;;;;;0.10;0.10;;;;;;;12.58;100.00;98426.31;5115844;28;20305;-57
2023/09/23 00:22:23;;;;;;;0.10;0.10;;;;;;;12.46;100.00;98428.19;5115767;28;20194;-58
2023/09/23 00:25:10;;;;;;;0.10;0.10;;;;;;;-144.59;100.00;74837.31;5115444;28;20296;-57
2023/09/23 00:27:58;;;;;;;0.10;0.10;;;;;;;12.41;100.00;74841.38;5099674;28;20267;-58
2023/09/23 00:30:46;;;;;;;0.10;0.10;;;;;;;12.31;100.00;98430.28;5115551;28;20244;-58
2023/09/23 00:33:37;;;;;;;0.10;0.10;;;;;;;12.51;100.00;98436.59;5115307;28;20193;-58
2023/09/23 00:36:26;;;;;;;0.10;0.10;;;;;;;12.39;100.00;98437.63;5115321;28;20637;-58
2023/09/23 00:39:13;;;;;;;0.10;0.10;;;;;;;12.43;100.00;98439.03;5115231;28;20677;-58
2023/09/23 00:41:59;;;;;;;0.10;0.10;;;;;;;12.36;100.00;98443.19;5113976;28;20198;-58
2023/09/23 00:44:46;;;;;;;0.10;0.10;;;;;;;12.30;100.00;98446.34;5114770;28;20696;-58
2023/09/23 00:47:34;;;;;;;0.10;0.10;;;;;;;12.42;100.00;98455.09;5115176;28;20194;-57
2023/09/23 00:50:22;;;;;;;0.00;0.00;;;;;;;12.38;100.00;98451.88;5115148;28;20283;-57
2023/09/23 00:53:11;;;;;;;0.10;0.10;;;;;;;12.28;100.00;98462.41;5114946;28;20202;-57
2023/09/23 00:56:00;;;;;;;0.00;0.00;;;;;;;12.31;100.00;98456.00;5113770;28;20293;-57
2023/09/23 00:58:47;;;;;;;0.10;0.10;;;;;;;12.25;100.00;98467.94;5099408;28;20201;-57
2023/09/23 01:01:34;;;;;;;0.10;0.10;;;;;;;12.25;100.00;98461.81;5114730;28;20218;-57
2023/09/23 01:04:21;;;;;;;0.00;0.00;;;;;;;12.28;100.00;98465.06;5114693;28;20293;-57
2023/09/23 01:07:09;;;;;;;0.10;0.10;;;;;;;12.30;100.00;98462.28;5114748;28;20209;-57
2023/09/23 01:09:57;;;;;;;0.10;0.10;;;;;;;12.36;100.00;98474.22;5113076;28;20189;-57
2023/09/23 01:12:45;;;;;;;0.10;0.10;;;;;;;12.21;100.00;98471.00;5097879;28;20194;-57
2023/09/23 01:15:32;;;;;;;0.10;0.10;;;;;;;12.28;100.00;98467.72;5114527;28;20194;-57
2023/09/23 01:18:28;;;;;;;0.10;0.10;;;;;;;12.26;100.00;98466.16;5114458;28;20756;-57
2023/09/23 01:21:15;;;;;;;0.10;0.10;;;;;;;12.39;100.00;98463.34;5114609;28;20210;-58
2023/09/23 01:24:05;;;;;;;0.10;0.10;;;;;;;12.41;100.00;98461.41;5114175;28;20225;-58
2023/09/23 01:26:52;;;;;;;0.10;0.10;;;;;;;12.36;100.00;98466.25;5113034;28;20182;-57
2023/09/23 01:29:38;;;;;;;0.10;0.10;;;;;;;12.30;100.00;98470.25;5114391;28;20194;-58
2023/09/23 01:32:35;;;;;;;0.10;0.10;;;;;;;12.42;100.00;98463.91;5114318;28;20241;-57
2023/09/23 01:35:22;;;;;;;0.10;0.10;;;;;;;12.47;100.00;98472.38;5114090;28;20194;-57
2023/09/23 01:38:09;;;;;;;0.10;0.10;;;;;;;12.49;100.00;98470.41;5114189;28;20240;-57
2023/09/23 01:40:58;;;;;;;0.10;0.10;;;;;;;12.36;100.00;98471.56;5112824;28;20193;-57
2023/09/23 01:43:45;;;;;;;0.10;0.10;;;;;;;12.31;100.00;98477.25;5114206;28;20370;-57
2023/09/23 01:46:33;;;;;;;0.10;0.10;;;;;;;12.23;100.00;98469.91;5098230;28;20218;-57
2023/09/23 01:49:19;;;;;;;0.10;0.10;;;;;;;12.26;100.00;98471.47;5112892;28;20189;-57
2023/09/23 01:52:06;;;;;;;0.10;0.10;;;;;;;12.27;100.00;98478.47;5114070;28;20202;-57
2023/09/23 01:54:53;;;;;;;0.10;0.10;;;;;;;12.50;100.00;98476.56;5113908;28;20281;-57
2023/09/23 01:57:42;;;;;;;0.10;0.10;;;;;;;12.40;100.00;98486.28;5112437;28;20224;-58
2023/09/23 02:00:32;;;;;;;0.10;0.10;;;;;;;12.25;100.00;98491.00;5098421;28;20244;-57
2023/09/23 02:03:20;;;;;;;0.10;0.10;;;;;;;12.26;100.00;-17714.94;5098173;28;20190;-57
2023/09/23 02:06:07;;;;;;;0.10;0.10;;;;;;;12.33;100.00;98504.50;5113440;28;20214;-56
2023/09/23 02:08:54;;;;;;;0.10;0.10;;;;;;;12.39;100.00;98506.66;5113688;28;20181;-57
2023/09/23 02:11:41;;;;;;;0.10;0.10;;;;;;;12.29;100.00;98505.75;5112242;28;20198;-57
2023/09/23 02:14:29;;;;;;;0.10;0.10;;;;;;;12.37;100.00;98510.44;5098245;28;20198;-57
2023/09/23 02:17:16;;;;;;;0.10;0.10;;;;;;;12.26;100.00;98511.31;5112547;28;20197;-58
2023/09/23 02:20:09;;;;;;;0.10;0.10;;;;;;;12.29;100.00;98527.81;5112766;28;20189;-58
2023/09/23 02:22:56;;;;;;;0.10;0.10;;;;;;;12.35;100.00;98522.97;5097825;28;20234;-58
2023/09/23 02:25:43;;;;;;;0.10;0.10;;;;;;;12.26;100.00;98521.94;5111850;28;20221;-58
2023/09/23 02:28:30;;;;;;;0.10;0.10;;;;;;;12.24;100.00;98542.44;5112392;28;20198;-58
2023/09/23 02:31:19;;;;;;;0.10;0.10;;;;;;;12.32;100.00;98534.69;5113108;28;20222;-58
2023/09/23 02:34:10;;;;;;;0.00;0.00;;;;;;;12.43;100.00;98534.66;5112357;28;20198;-58
2023/09/23 02:36:56;;;;;;;0.10;0.10;;;;;;;12.50;100.00;98538.50;5113160;28;20641;-58
2023/09/23 02:39:43;;;;;;;0.10;0.10;;;;;;;12.51;100.00;98547.31;5113095;28;20685;-58
2023/09/23 02:42:30;;;;;;;0.10;0.10;;;;;;;12.52;100.00;98551.66;5112079;28;20692;-58
2023/09/23 02:45:17;;;;;;;0.10;0.10;;;;;;;12.61;100.00;98562.38;5112938;28;20702;-58
2023/09/23 02:48:07;;;;;;;0.10;0.10;;;;;;;12.67;100.00;98552.22;5097550;28;20289;-58
2023/09/23 02:50:54;;;;;;;0.10;0.10;;;;;;;12.56;100.00;98556.59;5113224;28;20285;-58
2023/09/23 02:53:44;;;;;;;0.10;0.10;;;;;;;12.54;100.00;98549.72;5112988;28;20271;-58
2023/09/23 02:56:32;;;;;;;0.10;0.10;;;;;;;12.61;100.00;98561.53;5130569;28;20190;-58
2023/09/23 02:59:25;;;;;;;0.10;0.10;;;;;;;12.38;100.00;98570.53;5133656;28;20667;-58
2023/09/23 03:02:20;;;;;;;0.10;0.10;;;;;;;12.42;100.00;98571.97;5118156;28;20235;-58
2023/09/23 03:05:13;;;;;;;0.10;0.10;;;;;;;12.20;100.00;98576.34;5132456;28;20240;-58
2023/09/23 03:08:01;;;;;;;0.10;0.10;;;;;;;-144.59;100.00;98572.16;5132571;28;20822;-58
2023/09/23 03:10:51;;;;;;;0.10;0.10;;;;;;;12.21;100.00;98571.88;5132329;28;20259;-57
2023/09/23 03:13:39;;;;;;;0.10;0.10;;;;;;;12.08;100.00;98572.03;5133497;28;20355;-57
2023/09/23 03:16:30;;;;;;;0.10;0.10;;;;;;;12.00;100.00;98585.06;5133478;28;20190;-58
2023/09/23 03:19:22;;;;;;;0.10;0.10;;;;;;;11.95;100.00;98595.19;5133294;28;20228;-57
2023/09/23 03:22:10;;;;;;;0.10;0.10;;;;;;;11.89;100.00;98593.03;5133563;28;20201;-58
2023/09/23 03:24:57;;;;;;;0.10;0.10;;;;;;;11.92;100.00;98596.28;5133521;28;20205;-57
2023/09/23 03:27:44;;;;;;;0.10;0.10;;;;;;;11.95;100.00;98611.09;5132066;28;20376;-58
2023/09/23 03:30:31;;;;;;;0.10;0.10;;;;;;;11.97;100.00;98618.00;5132349;28;20703;-58
2023/09/23 03:33:19;;;;;;;0.10;0.10;;;;;;;11.97;100.00;98618.00;5137368;27;20193;-58
2023/09/23 03:36:14;;;;;;;0.10;0.10;;;;;;;11.87;100.00;98618.81;5121710;27;20312;-58
2023/09/23 03:39:04;;;;;;;0.10;0.10;;;;;;;11.79;100.00;98623.88;5121435;27;20218;-58
2023/09/23 03:41:52;;;;;;;0.10;0.10;;;;;;;11.82;100.00;98628.97;5135863;27;20702;-57
2023/09/23 03:44:38;;;;;;;0.10;0.10;;;;;;;11.77;100.00;98637.22;5121702;27;20199;-57
2023/09/23 03:47:25;;;;;;;0.10;0.10;;;;;;;11.82;100.00;98634.28;5136550;27;20334;-58
2023/09/23 03:50:13;;;;;;;0.10;0.10;;;;;;;11.73;100.00;98631.31;5135871;27;20213;-58
2023/09/23 03:53:00;;;;;;;0.10;0.10;;;;;;;11.71;100.00;98632.41;5135813;27;20190;-57
2023/09/23 03:55:50;;;;;;;0.10;0.10;;;;;;;11.64;100.00;98644.44;5135513;27;20254;-58
2023/09/23 03:58:38;;;;;;;0.10;0.10;;;;;;;11.63;100.00;98646.25;5136656;27;20198;-58
2023/09/23 04:01:25;;;;;;;0.10;0.10;;;;;;;11.79;100.00;98659.22;5136836;27;20255;-58
2023/09/23 04:04:12;;;;;;;0.10;0.10;;;;;;;11.60;100.00;98658.94;5136832;27;20201;-58
2023/09/23 04:07:00;;;;;;;0.10;0.10;;;;;;;11.44;100.00;98651.28;5136385;27;20227;-58
2023/09/23 04:09:48;;;;;;;0.10;0.10;;;;;;;11.50;100.00;98660.59;5136596;27;20193;-58
2023/09/23 04:12:37;;;;;;;0.10;0.10;;;;;;;11.35;100.00;98667.88;5135253;27;20369;-58
2023/09/23 04:15:25;;;;;;;0.10;0.10;;;;;;;11.35;100.00;98667.88;5136194;27;20201;-58
2023/09/23 04:18:11;;;;;;;0.10;0.10;;;;;;;11.74;100.00;98677.28;5136276;27;20273;-58
2023/09/23 04:21:00;;;;;;;0.10;0.10;;;;;;;11.55;100.00;98676.97;5136011;27;20234;-58
2023/09/23 04:23:48;;;;;;;0.10;0.10;;;;;;;11.73;100.00;98678.25;5135883;27;20252;-58
2023/09/23 04:26:35;;;;;;;0.10;0.10;;;;;;;11.64;100.00;98681.59;5134691;27;20266;-58
2023/09/23 04:29:25;;;;;;;0.10;0.10;;;;;;;11.44;100.00;98672.50;5136137;27;20190;-58
2023/09/23 04:32:12;;;;;;;0.10;0.10;;;;;;;11.34;100.00;98682.94;5135717;27;20263;-58
2023/09/23 04:34:59;;;;;;;0.10;0.10;;;;;;;11.60;100.00;98677.50;5136003;27;20193;-58
2023/09/23 04:37:46;;;;;;;0.10;0.10;;;;;;;11.51;100.00;98689.63;5135965;27;20194;-58
2023/09/23 04:40:33;;;;;;;0.10;0.10;;;;;;;11.31;100.00;98695.59;5134191;27;20181;-58
2023/09/23 04:43:20;;;;;;;0.10;0.10;;;;;;;11.39;100.00;98703.81;5135095;27;20312;-58
2023/09/23 04:46:14;;;;;;;0.10;0.10;;;;;;;11.21;100.00;98706.03;5135682;27;20202;-58
2023/09/23 04:49:01;;;;;;;0.07;0.07;;;;;;;11.23;100.00;98703.25;5135720;27;20365;-58
2023/09/23 04:51:48;;;;;;;0.10;0.10;;;;;;;11.03;100.00;98710.03;5135471;27;20185;-58
2023/09/23 04:54:35;;;;;;;0.10;0.10;;;;;;;11.06;100.00;98712.44;5135431;27;20193;-58
2023/09/23 04:57:22;;;;;;;0.10;0.10;;;;;;;11.07;100.00;98722.09;5134097;27;20254;-57
2023/09/23 05:00:10;;;;;;;0.10;0.10;;;;;;;10.88;100.00;98735.81;5135546;27;20239;-58
2023/09/23 05:02:58;;;;;;;0.10;0.10;;;;;;;10.97;100.00;98735.16;5135611;27;20197;-58
2023/09/23 05:05:45;;;;;;;0.10;0.10;;;;;;;10.95;100.00;98745.03;5135258;27;20205;-57
2023/09/23 05:08:32;;;;;;;0.10;0.10;;;;;;;10.81;100.00;98746.03;5135049;27;20186;-58
2023/09/23 05:11:19;;;;;;;0.10;0.10;;;;;;;10.79;100.00;98741.78;5134139;27;20200;-57
2023/09/23 05:14:06;;;;;;;0.10;0.10;;;;;;;10.64;100.00;98754.31;5135240;27;20197;-57
2023/09/23 05:16:53;;;;;;;0.10;0.10;;;;;;;10.65;100.00;98753.38;5135263;27;20261;-58
2023/09/23 05:19:42;;;;;;;0.10;0.10;;;;;;;10.65;100.00;-17675.91;5135192;27;20186;-58
2023/09/23 05:22:28;;;;;;;0.10;0.10;;;;;;;10.74;100.00;98758.00;5134808;27;20190;-58
2023/09/23 05:25:16;;;;;;;0.10;0.10;;;;;;;11.01;100.00;98764.97;5135055;27;20192;-58
2023/09/23 05:28:04;;;;;;;0.10;0.10;;;;;;;10.86;100.00;98758.94;5134658;27;20217;-58
2023/09/23 05:30:53;;;;;;;0.10;0.10;;;;;;;10.87;100.00;98764.13;5135005;27;20201;-58
2023/09/23 05:33:40;;;;;;;0.10;0.10;;;;;;;10.93;100.00;98772.59;5134849;27;20197;-58
2023/09/23 05:36:29;;;;;;;0.10;0.10;;;;;;;10.92;100.00;98771.75;5134414;27;20235;-58
2023/09/23 05:39:19;;;;;;;0.10;0.10;;;;;;;10.96;100.00;98781.16;5134789;27;20258;-58
2023/09/23 05:42:06;;;;;;;0.00;0.00;;;;;;;10.98;100.00;98784.53;5133528;27;20193;-58
2023/09/23 05:44:52;;;;;;;0.10;0.10;;;;;;;10.85;100.00;98789.88;5134572;27;20197;-58
2023/09/23 05:47:41;;;;;;;0.10;0.10;;;;;;;10.79;100.00;98794.75;5134409;27;20247;-57
2023/09/23 05:50:28;;;;;;;0.10;0.10;;;;;;;11.07;100.00;98793.66;5134613;27;20197;-58
2023/09/23 05:53:16;;;;;;;0.10;0.10;;;;;;;10.82;100.00;98803.34;5134569;27;20201;-58
2023/09/23 05:56:04;;;;;;;0.10;0.10;;;;;;;10.83;100.00;98804.22;5133085;27;20235;-58
2023/09/23 05:58:50;;;;;;;0.10;0.10;;;;;;;10.94;100.00;98816.69;5134244;27;20181;-58
2023/09/23 06:01:40;;;;;;;0.10;0.10;;;;;;;10.91;100.00;98817.75;5134256;27;20270;-58
2023/09/23 06:04:27;;;;;;;0.10;0.10;;;;;;;11.00;100.00;98830.38;5134260;27;20193;-58
2023/09/23 06:07:14;;;;;;;0.10;0.10;;;;;;;10.99;100.00;98825.13;5134202;27;20209;-58
2023/09/23 06:10:04;;;;;;;0.10;0.10;;;;;;;11.15;100.00;98826.59;5134123;27;20193;-58
2023/09/23 06:12:50;;;;;;;0.10;0.10;;;;;;;11.14;100.00;98834.66;5134165;27;20256;-58
2023/09/23 06:15:37;;;;;;;0.10;0.10;;;;;;;11.03;100.00;98832.78;5133634;27;20196;-58
2023/09/23 06:18:25;;;;;;;0.10;0.10;;;;;;;11.00;100.00;98845.38;5133656;27;20194;-58
2023/09/23 06:21:11;;;;;;;0.10;0.10;;;;;;;11.01;100.00;98847.09;5133746;27;20202;-57
2023/09/23 06:23:58;;;;;;;0.10;0.10;;;;;;;11.02;100.00;98852.28;5133625;27;20230;-57
2023/09/23 06:26:47;;;;;;;0.10;0.10;;;;;;;10.97;100.00;98865.00;5132319;27;20311;-58
2023/09/23 06:29:34;;;;;;;0.10;0.10;;;;;;;11.28;100.00;98863.66;5133979;27;20193;-58
2023/09/23 06:32:21;;;;;;;0.10;0.10;;;;;;;11.44;100.00;98866.94;5134219;27;20319;-57
2023/09/23 06:35:09;;;;;;;0.10;0.10;;;;;;;11.65;100.00;98868.97;5133692;28;20548;-58
2023/09/23 06:37:56;;;;;;;0.10;0.10;;;;;;;11.61;100.00;98870.16;5133849;28;20228;-57
2023/09/23 06:40:46;;;;;;;0.00;0.00;;;;;;;11.72;100.00;98865.75;5132467;28;20193;-57
2023/09/23 06:43:35;;;;;;;0.10;0.10;;;;;;;11.67;100.00;98867.03;5132571;28;20307;-58
2023/09/23 06:46:21;;;;;;;0.10;0.10;;;;;;;11.62;100.00;98875.34;5133838;28;20217;-58
2023/09/23 06:49:08;;;;;;;0.10;0.10;;;;;;;11.66;100.00;98873.31;5133329;28;20347;-58
2023/09/23 06:51:55;;;;;;;0.10;0.10;;;;;;;11.79;100.00;98878.59;5133473;28;20200;-58
2023/09/23 06:54:44;;;;;;;0.10;0.10;;;;;;;11.92;100.00;98876.75;5133676;28;20193;-58
2023/09/23 06:57:31;;;;;;;0.10;0.10;;;;;;;12.01;100.00;98881.38;5132372;28;20177;-58
2023/09/23 07:00:20;;;;;;;0.10;0.10;;;;;;;12.22;100.00;98886.88;5133501;28;20189;-58
2023/09/23 07:03:07;;;;;;;0.10;0.10;;;;;;;12.30;100.00;98890.66;5133608;28;20213;-57
2023/09/23 07:05:54;;;;;;;0.10;0.10;;;;;;;12.39;100.00;98883.81;5133416;27;20544;-58
2023/09/23 07:08:41;;;;;;;0.10;0.10;;;;;;;12.60;100.00;98883.97;5137198;27;20208;-57
2023/09/23 07:11:28;;;;;;;0.10;0.10;;;;;;;12.73;100.00;98881.22;5135638;27;20193;-58
2023/09/23 07:14:15;;;;;;;0.10;0.10;;;;;;;12.86;100.00;98874.00;5137464;27;20197;-57
2023/09/23 07:17:04;;;;;;;0.00;0.00;;;;;;;13.07;100.00;98876.78;5137093;27;20380;-57
2023/09/23 07:19:51;;;;;;;0.10;0.10;;;;;;;13.34;100.00;98877.28;5137496;27;20194;-57
2023/09/23 07:22:38;;;;;;;0.10;0.10;;;;;;;13.39;100.00;98871.59;5137130;27;20220;-57
2023/09/23 07:25:25;;;;;;;0.10;0.10;;;;;;;13.49;100.00;98867.22;5134588;27;20193;-57
2023/09/23 07:28:12;;;;;;;0.10;0.10;;;;;;;13.61;100.00;98868.91;5136808;27;20328;-58
2023/09/23 07:30:59;;;;;;;0.10;0.10;;;;;;;13.74;100.00;98866.09;5137330;27;20239;-58
2023/09/23 07:33:47;;;;;;;0.10;0.10;;;;;;;13.77;100.00;98855.19;5136987;27;20185;-58
2023/09/23 07:36:34;;;;;;;0.10;0.10;;;;;;;13.68;100.00;98861.25;5137191;27;20193;-57
2023/09/23 07:39:21;;;;;;;0.10;0.10;;;;;;;13.70;100.00;98862.84;5137222;27;20201;-57
2023/09/23 07:42:08;;;;;;;0.10;0.10;;;;;;;13.62;100.00;98878.59;5134524;27;20193;-58
2023/09/23 07:44:55;;;;;;;0.10;0.10;;;;;;;13.85;100.00;98875.84;5136880;27;20197;-57
2023/09/23 07:47:42;;;;;;;0.10;0.10;;;;;;;14.01;100.00;98877.13;5136853;27;20201;-57
2023/09/23 07:50:31;;;;;;;0.10;0.10;;;;;;;14.20;100.00;98875.63;5136717;27;20193;-57
2023/09/23 07:53:18;;;;;;;0.10;0.10;;;;;;;14.36;100.00;98865.34;5136831;27;20198;-57
2023/09/23 07:56:05;;;;;;;0.10;0.10;;;;;;;14.40;100.00;98877.44;5135521;27;20777;-57
2023/09/23 07:58:51;;;;;;;0.10;0.10;;;;;;;14.61;100.00;98872.16;5136710;27;20202;-57
2023/09/23 08:01:38;;;;;;;0.10;0.10;;;;;;;14.61;100.00;98872.16;5136782;27;20192;-57
2023/09/23 08:04:25;;;;;;;0.10;0.10;;;;;;;14.74;100.00;98885.25;5136546;27;20206;-57
2023/09/23 08:07:14;;;;;;;0.10;0.10;;;;;;;14.49;100.00;98897.19;5134983;27;20197;-58
2023/09/23 08:10:02;;;;;;;0.10;0.10;;;;;;;14.62;100.00;98896.97;5135942;27;20239;-57
2023/09/23 08:12:49;;;;;;;0.10;0.10;;;;;;;14.82;100.00;98899.63;5120468;27;20189;-58
2023/09/23 08:15:36;;;;;;;0.10;0.10;;;;;;;14.89;100.00;98907.97;5134804;27;20198;-57
2023/09/23 08:18:23;;;;;;;0.10;0.10;;;;;;;14.88;100.00;98901.78;5119431;27;20205;-57
2023/09/23 08:21:11;;;;;;;0.10;0.10;;;;;;;15.05;100.00;98910.97;5136293;27;20201;-57
2023/09/23 08:23:59;;;;;;;0.00;0.00;;;;;;;15.15;100.00;98905.69;5135825;27;20225;-57
2023/09/23 08:26:48;;;;;;;0.10;0.10;;;;;;;15.40;100.00;98912.41;5134240;27;20275;-57
2023/09/23 08:29:36;;;;;;;0.10;0.10;;;;;;;15.61;100.00;98915.88;5135533;27;20216;-57
2023/09/23 08:32:22;;;;;;;0.10;0.10;;;;;;;15.65;100.00;98908.47;5136229;27;20312;-58
2023/09/23 08:35:10;;;;;;;0.10;0.10;;;;;;;15.90;100.00;98920.44;5135956;27;20189;-58
2023/09/23 08:37:57;;;;;;;0.00;0.00;;;;;;;15.95;100.00;98920.91;5136069;27;20190;-57
2023/09/23 08:40:46;;;;;;;0.10;0.10;;;;;;;15.78;100.00;98925.06;5134701;27;20607;-58
2023/09/23 08:43:37;;;;;;;0.10;0.10;;;;;;;15.97;100.00;98929.63;5135890;27;20201;-58
2023/09/23 08:46:26;;;;;;;0.00;0.00;;;;;;;16.26;100.00;98930.50;5119785;27;20194;-58
2023/09/23 08:49:13;;;;;;;0.10;0.10;;;;;;;16.06;100.00;98930.63;5135437;27;20233;-58
2023/09/23 08:52:02;;;;;;;0.10;0.10;;;;;;;16.20;100.00;98933.72;5135791;27;20259;-57
2023/09/23 08:54:50;;;;;;;0.10;0.10;;;;;;;16.43;100.00;98942.31;5135666;27;20205;-57
2023/09/23 08:57:39;;;;;;;0.10;0.10;;;;;;;16.66;100.00;98944.69;5134050;27;20197;-58
2023/09/23 09:00:29;;;;;;;0.10;0.10;;;;;;;17.13;100.00;98959.03;5135495;27;20196;-57
2023/09/23 09:03:16;;;;;;;0.10;0.10;;;;;;;17.03;100.00;98969.75;5135192;27;20275;-58
2023/09/23 09:06:03;;;;;;;0.10;0.10;;;;;;;17.44;100.00;98973.03;5135372;27;20691;-57
2023/09/23 09:08:50;;;;;;;0.10;0.10;;;;;;;17.67;100.00;98971.69;5135180;27;20206;-57
2023/09/23 09:11:37;;;;;;;0.10;0.10;;;;;;;17.15;100.00;98981.97;5117969;27;20196;-57
2023/09/23 09:14:25;;;;;;;0.10;0.10;;;;;;;17.46;100.00;98981.75;5135140;27;20675;-57
2023/09/23 09:17:13;;;;;;;0.10;0.10;;;;;;;17.59;100.00;98986.78;5135394;27;20186;-57
2023/09/23 09:20:02;;;;;;;0.10;0.10;;;;;;;17.62;100.00;98984.66;5135102;27;20239;-58
2023/09/23 09:22:51;;;;;;;0.10;0.10;;;;;;;17.34;100.00;98993.63;5135148;27;20226;-57
2023/09/23 09:25:38;;;;;;;0.10;0.10;;;;;;;17.40;100.00;98985.03;5133967;27;20197;-58
2023/09/23 09:28:24;;;;;;;0.10;0.10;;;;;;;17.21;100.00;98985.91;5134791;27;20193;-57
2023/09/23 09:31:14;;;;;;;0.10;0.10;;;;;;;17.46;0.00;98995.97;5134790;27;20227;-57
2023/09/23 09:34:05;;;;;;;0.10;0.10;;;;;;;17.64;100.00;98996.06;5134837;27;20185;-58
2023/09/23 09:36:57;;;;;;;0.10;0.10;;;;;;;17.98;100.00;98992.84;5134697;27;20272;-57
2023/09/23 09:39:51;;;;;;;0.10;0.10;;;;;;;18.11;100.00;98995.16;5134843;27;20194;-57
2023/09/23 09:42:43;;;;;;;0.10;0.10;;;;;;;18.50;100.00;99006.47;5133418;27;20189;-57
2023/09/23 09:45:34;;;;;;;0.10;0.10;;;;;;;18.73;100.00;99009.59;5134706;27;20265;-58
2023/09/23 09:48:26;;;;;;;0.10;0.10;;;;;;;18.46;100.00;99018.53;5134731;27;20193;-57
2023/09/23 09:51:16;;;;;;;0.10;0.10;;;;;;;18.41;100.00;99008.22;5134604;27;20263;-58
2023/09/23 09:54:05;;;;;;;0.10;0.10;;;;;;;19.08;100.00;99012.25;5134479;27;20205;-58
2023/09/23 09:56:53;;;;;;;0.10;0.10;;;;;;;19.91;100.00;99014.47;5133147;27;20232;-58
2023/09/23 09:59:43;;;;;;;0.10;0.10;;;;;;;20.65;92.07;99002.09;5134203;27;20189;-58
2023/09/23 10:02:33;;;;;;;0.10;0.10;;;;;;;21.89;77.76;99003.50;5134420;27;20197;-58
2023/09/23 10:05:22;;;;;;;0.10;0.10;;;;;;;23.73;70.53;99000.88;5134306;27;20213;-58
2023/09/23 10:08:12;;;;;;;0.00;0.00;;;;;;;25.10;56.74;99003.63;5134042;27;20272;-58
2023/09/23 10:11:02;;;;;;;0.10;0.10;;;;;;;26.07;50.55;99010.16;5132985;27;20280;-58
2023/09/23 10:13:49;;;;;;;0.00;0.00;;;;;;;27.00;49.86;98998.50;5134207;27;20275;-58
2023/09/23 10:16:37;;;;;;;0.10;0.10;;;;;;;25.57;49.81;99001.25;5134102;27;20312;-58
2023/09/23 10:19:31;;;;;;;0.10;0.10;;;;;;;23.28;58.83;98995.41;5134124;27;20194;-58
2023/09/23 10:22:20;;;;;;;0.10;0.10;;;;;;;24.18;58.79;98992.56;5134036;27;20679;-58
2023/09/23 10:25:12;;;;;;;0.10;0.10;;;;;;;26.36;49.98;98987.28;5134017;27;20197;-58
2023/09/23 10:28:00;;;;;;;0.00;0.00;;;;;;;26.20;50.53;98985.75;5133919;27;20250;-59
2023/09/23 10:30:57;;;;;;;0.10;0.10;;;;;;;26.38;49.04;99002.38;5133394;27;20217;-58
2023/09/23 10:33:44;;;;;;;0.10;0.10;;;;;;;26.57;44.84;99000.75;5133890;27;20185;-58
2023/09/23 10:36:31;;;;;;;0.00;0.00;;;;;;;25.77;45.42;98999.53;5133988;27;20189;-58
2023/09/23 10:39:19;;;;;;;0.10;0.10;;;;;;;24.68;50.31;99004.41;5133737;28;20251;-57
2023/09/23 10:42:14;;;;;;;0.10;0.10;;;;;;;24.04;52.03;99006.13;5132026;27;20190;-57
2023/09/23 10:45:01;;;;;;;0.10;0.10;;;;;;;22.60;59.71;99004.38;5133245;28;20300;-58
2023/09/23 10:47:48;;;;;;;0.10;0.10;;;;;;;20.66;71.98;99018.13;5133839;28;20230;-57
2023/09/23 10:50:35;;;;;;;0.10;0.10;;;;;;;20.20;77.39;99030.22;5133500;28;20343;-57
2023/09/23 10:53:22;;;;;;;0.10;0.10;;;;;;;21.53;72.63;99023.84;5133812;28;20196;-57
2023/09/23 10:56:10;;;;;;;0.10;0.10;;;;;;;20.41;79.05;99027.09;5132331;28;20200;-58
2023/09/23 10:58:58;;;;;;;0.10;0.10;;;;;;;19.87;85.15;99032.75;5133676;28;20194;-57
2023/09/23 11:01:45;;;;;;;0.10;0.10;;;;;;;19.45;91.74;99030.81;5133682;28;20189;-58
2023/09/23 11:04:32;;;;;;;0.00;0.00;;;;;;;19.50;92.53;99035.72;5133573;28;20197;-57
2023/09/23 11:07:20;;;;;;;0.10;0.10;;;;;;;19.58;93.41;99037.63;5133602;28;20261;-57
2023/09/23 11:10:08;;;;;;;0.10;0.10;;;;;;;19.52;92.31;99041.78;5133133;28;20221;-57
2023/09/23 11:12:57;;;;;;;0.10;0.10;;;;;;;19.60;89.92;99039.19;5133390;28;20193;-57
2023/09/23 11:15:46;;;;;;;0.00;0.00;;;;;;;20.77;79.70;99033.09;5133627;28;20256;-58
2023/09/23 11:18:33;;;;;;;0.00;0.00;;;;;;;20.36;82.50;99032.94;5133130;28;20202;-57
2023/09/23 11:21:20;;;;;;;0.10;0.10;;;;;;;19.91;82.86;99036.84;5132482;28;20198;-57
2023/09/23 11:24:08;;;;;;;0.10;0.10;;;;;;;19.24;88.04;99040.22;5133225;28;20306;-57
2023/09/23 11:26:55;;;;;;;0.00;0.00;;;;;;;22.41;69.78;99043.47;5132080;28;20327;-57
2023/09/23 11:29:43;;;;;;;0.10;0.10;;;;;;;26.57;50.43;99032.53;5132159;28;20475;-58
2023/09/23 11:32:30;;;;;;;0.00;0.00;;;;;;;28.17;42.67;99024.19;5132678;28;20193;-58
2023/09/23 11:35:17;;;;;;;0.00;0.00;;;;;;;29.13;39.84;99029.59;5133437;28;20303;-58
2023/09/23 11:38:05;;;;;;;0.10;0.10;;;;;;;27.91;40.65;99041.44;5133366;28;20267;-58
2023/09/23 11:40:51;;;;;;;0.00;0.00;;;;;;;28.17;41.32;99040.53;5132089;28;20198;-58
2023/09/23 11:43:39;;;;;;;0.00;0.00;;;;;;;29.06;38.09;99037.00;5133228;28;20235;-58
2023/09/23 11:46:27;;;;;;;0.00;0.00;;;;;;;30.33;35.85;99040.28;5133266;28;20189;-58
2023/09/23 11:49:14;;;;;;;0.00;0.00;;;;;;;29.63;37.10;99033.22;5133202;28;20255;-58
2023/09/23 11:52:00;;;;;;;0.00;0.00;;;;;;;29.52;37.69;99044.00;5133267;27;20193;-58
2023/09/23 11:54:47;;;;;;;0.00;0.00;;;;;;;27.58;40.28;99036.84;5136782;27;20794;-58
2023/09/23 11:57:35;;;;;;;0.10;0.10;;;;;;;26.97;40.70;99049.75;5135680;27;20190;-58
2023/09/23 12:00:22;;;;;;;0.00;0.00;;;;;;;26.73;41.54;99048.44;5136728;27;20197;-58
2023/09/23 12:03:10;;;;;;;0.10;0.10;;;;;;;25.01;46.43;99048.13;5136564;27;20193;-58
2023/09/23 12:05:57;;;;;;;0.10;0.10;;;;;;;23.78;51.09;99056.13;5136236;27;20217;-57
2023/09/23 12:08:44;;;;;;;0.10;0.10;;;;;;;22.28;55.89;99053.97;5136676;27;20189;-58
2023/09/23 12:11:31;;;;;;;0.10;0.10;;;;;;;24.67;51.14;99066.91;5134998;27;20216;-58
2023/09/23 12:14:19;;;;;;;0.10;0.10;;;;;;;26.79;45.03;99072.09;5136344;27;20205;-58
2023/09/23 12:17:06;;;;;;;0.10;0.10;;;;;;;27.14;41.38;99061.13;5136425;27;20680;-57
2023/09/23 12:19:54;;;;;;;0.10;0.10;;;;;;;27.17;42.02;99060.69;5136402;27;20184;-58
2023/09/23 12:22:42;;;;;;;0.00;0.00;;;;;;;28.00;40.96;99077.47;5136266;27;20196;-58
2023/09/23 12:25:29;;;;;;;0.00;0.00;;;;;;;28.49;38.20;99057.84;5135062;27;20209;-58
2023/09/23 12:28:16;;;;;;;0.10;0.10;;;;;;;28.05;39.01;99073.03;5135708;27;20205;-58
2023/09/23 12:31:03;;;;;;;0.05;0.05;;;;;;;27.51;39.70;99070.56;5135949;27;20217;-58
2023/09/23 12:33:50;;;;;;;0.00;0.00;;;;;;;26.46;42.47;99069.28;5136080;27;20197;-58
2023/09/23 12:36:39;;;;;;;0.10;0.10;;;;;;;27.64;41.16;99068.66;5136047;27;20198;-58
2023/09/23 12:39:26;;;;;;;0.00;0.00;;;;;;;29.52;37.73;99068.56;5136126;27;20725;-58
2023/09/23 12:42:14;;;;;;;0.00;0.00;;;;;;;31.31;33.12;99070.09;5134727;27;20189;-58
2023/09/23 12:45:01;;;;;;;0.00;0.00;;;;;;;28.37;36.74;99076.75;5135894;27;20186;-58
2023/09/23 12:47:51;;;;;;;0.10;0.10;;;;;;;26.41;40.60;99079.88;5135876;27;20320;-58
2023/09/23 12:50:44;;;;;;;0.10;0.10;;;;;;;25.58;44.40;99068.06;5135454;27;20225;-58
2023/09/23 12:53:32;;;;;;;0.10;0.10;;;;;;;24.09;47.27;99074.88;5135641;27;20193;-58
2023/09/23 12:56:21;;;;;;;0.10;0.10;;;;;;;24.23;48.80;99081.34;5134291;27;20197;-58
2023/09/23 12:59:08;;;;;;;0.10;0.10;;;;;;;26.49;41.38;99077.84;5134346;27;20198;-57
2023/09/23 13:01:55;;;;;;;0.10;0.10;;;;;;;26.20;41.85;99076.22;5135506;27;20251;-58
2023/09/23 13:04:42;;;;;;;0.00;0.00;;;;;;;28.20;37.51;99065.47;5134927;27;20190;-58